sensor_id;sensor_type;location;lat;lon;timestamp;pressure;altitude;pressure_sealevel;temperature;humidity
63405;BME280;49541;57.840;12.306;2023-04-08T00:01:21;102000.38;;;6.30;56.41
63405;BME280;49541;57.840;12.306;2023-04-08T00:06:22;101991.53;;;6.31;56.00
63405;BME280;49541;57.840;12.306;2023-04-08T00:11:22;101996.31;;;6.23;57.27
63405;BME280;49541;57.840;12.306;2023-04-08T00:16:22;101993.28;;;5.91;57.93
63405;BME280;49541;57.840;12.306;2023-04-08T00:21:22;101990.13;;;6.03;57.49
63405;BME280;49541;57.840;12.306;2023-04-08T00:26:22;101985.66;;;6.05;57.54
63405;BME280;49541;57.840;12.306;2023-04-08T00:31:23;101985.78;;;6.02;57.48
63405;BME280;49541;57.840;12.306;2023-04-08T00:36:23;101986.91;;;5.97;57.96
63405;BME280;49541;57.840;12.306;2023-04-08T00:41:23;101990.28;;;6.00;56.93
63405;BME280;49541;57.840;12.306;2023-04-08T00:46:23;101998.06;;;6.03;56.61
63405;BME280;49541;57.840;12.306;2023-04-08T00:51:25;101993.41;;;6.08;56.14
63405;BME280;49541;57.840;12.306;2023-04-08T00:56:26;101990.28;;;6.19;55.84
63405;BME280;49541;57.840;12.306;2023-04-08T01:01:32;101993.38;;;6.10;55.93
63405;BME280;49541;57.840;12.306;2023-04-08T01:11:34;101988.81;;;6.13;57.13
63405;BME280;49541;57.840;12.306;2023-04-08T01:16:35;101994.50;;;6.23;57.22
63405;BME280;49541;57.840;12.306;2023-04-08T01:21:37;101992.09;;;6.38;57.02
63405;BME280;49541;57.840;12.306;2023-04-08T01:26:37;101994.50;;;6.42;56.86
63405;BME280;49541;57.840;12.306;2023-04-08T01:31:39;102001.16;;;6.32;57.22
63405;BME280;49541;57.840;12.306;2023-04-08T01:36:40;102006.16;;;6.38;57.16
63405;BME280;49541;57.840;12.306;2023-04-08T01:41:43;102005.44;;;6.34;57.24
63405;BME280;49541;57.840;12.306;2023-04-08T01:46:44;102007.97;;;6.56;57.23
63405;BME280;49541;57.840;12.306;2023-04-08T01:51:45;102015.34;;;6.31;58.08
63405;BME280;49541;57.840;12.306;2023-04-08T01:56:46;102011.53;;;6.36;57.56
63405;BME280;49541;57.840;12.306;2023-04-08T02:01:46;102009.31;;;6.46;57.02
63405;BME280;49541;57.840;12.306;2023-04-08T02:06:47;101999.94;;;6.58;56.89
63405;BME280;49541;57.840;12.306;2023-04-08T02:11:47;102014.03;;;6.21;57.89
63405;BME280;49541;57.840;12.306;2023-04-08T02:21:48;102017.09;;;6.11;58.62
63405;BME280;49541;57.840;12.306;2023-04-08T02:26:50;102024.56;;;6.41;57.79
63405;BME280;49541;57.840;12.306;2023-04-08T02:31:51;102022.03;;;6.38;58.32
63405;BME280;49541;57.840;12.306;2023-04-08T02:36:52;102019.16;;;6.24;58.97
63405;BME280;49541;57.840;12.306;2023-04-08T02:41:52;102021.97;;;6.21;59.09
63405;BME280;49541;57.840;12.306;2023-04-08T02:46:52;102025.56;;;6.20;59.79
63405;BME280;49541;57.840;12.306;2023-04-08T02:51:52;102026.09;;;6.07;59.95
63405;BME280;49541;57.840;12.306;2023-04-08T02:56:52;102032.38;;;6.24;59.67
63405;BME280;49541;57.840;12.306;2023-04-08T03:01:53;102026.69;;;6.14;60.36
63405;BME280;49541;57.840;12.306;2023-04-08T03:06:53;102025.91;;;6.31;59.74
63405;BME280;49541;57.840;12.306;2023-04-08T03:11:53;102034.25;;;6.03;60.35
63405;BME280;49541;57.840;12.306;2023-04-08T03:16:53;102035.75;;;6.08;60.44
63405;BME280;49541;57.840;12.306;2023-04-08T03:21:54;102036.78;;;6.04;60.12
63405;BME280;49541;57.840;12.306;2023-04-08T03:26:54;102041.38;;;6.01;60.69
63405;BME280;49541;57.840;12.306;2023-04-08T03:31:54;102048.69;;;5.94;60.88
63405;BME280;49541;57.840;12.306;2023-04-08T03:36:55;102056.75;;;5.91;60.54
63405;BME280;49541;57.840;12.306;2023-04-08T03:41:55;102049.59;;;5.94;60.97
63405;BME280;49541;57.840;12.306;2023-04-08T03:46:55;102059.78;;;5.61;61.94
63405;BME280;49541;57.840;12.306;2023-04-08T03:51:55;102064.16;;;5.83;61.75
63405;BME280;49541;57.840;12.306;2023-04-08T03:56:55;102067.03;;;5.99;61.09
63405;BME280;49541;57.840;12.306;2023-04-08T04:01:56;102074.22;;;5.95;61.14
63405;BME280;49541;57.840;12.306;2023-04-08T04:06:56;102083.81;;;5.98;61.24
63405;BME280;49541;57.840;12.306;2023-04-08T04:11:56;102088.47;;;5.91;61.31
63405;BME280;49541;57.840;12.306;2023-04-08T04:16:56;102089.16;;;6.17;61.46
63405;BME280;49541;57.840;12.306;2023-04-08T04:21:56;102097.72;;;6.03;62.30
63405;BME280;49541;57.840;12.306;2023-04-08T04:26:57;102099.31;;;6.26;60.91
63405;BME280;49541;57.840;12.306;2023-04-08T04:31:57;102100.41;;;6.22;59.90
63405;BME280;49541;57.840;12.306;2023-04-08T04:36:57;102100.16;;;6.07;60.71
63405;BME280;49541;57.840;12.306;2023-04-08T04:41:57;102104.22;;;6.14;60.40
63405;BME280;49541;57.840;12.306;2023-04-08T04:46:57;102109.13;;;6.03;60.24
63405;BME280;49541;57.840;12.306;2023-04-08T04:51:57;102113.06;;;5.93;60.95
63405;BME280;49541;57.840;12.306;2023-04-08T04:56:58;102115.69;;;5.94;61.21
63405;BME280;49541;57.840;12.306;2023-04-08T05:02:01;102115.13;;;5.86;61.43
63405;BME280;49541;57.840;12.306;2023-04-08T05:07:02;102114.75;;;5.95;60.85
63405;BME280;49541;57.840;12.306;2023-04-08T05:12:02;102125.25;;;5.97;60.71
63405;BME280;49541;57.840;12.306;2023-04-08T05:17:02;102122.88;;;6.11;60.58
63405;BME280;49541;57.840;12.306;2023-04-08T05:22:04;102125.16;;;6.00;61.04
63405;BME280;49541;57.840;12.306;2023-04-08T05:27:04;102116.16;;;5.82;61.09
63405;BME280;49541;57.840;12.306;2023-04-08T05:32:05;102125.28;;;5.75;61.03
63405;BME280;49541;57.840;12.306;2023-04-08T05:37:05;102127.22;;;5.92;60.85
63405;BME280;49541;57.840;12.306;2023-04-08T05:42:05;102129.66;;;5.98;60.24
63405;BME280;49541;57.840;12.306;2023-04-08T05:47:06;102140.22;;;5.98;60.39
63405;BME280;49541;57.840;12.306;2023-04-08T05:52:06;102152.03;;;5.89;60.82
63405;BME280;49541;57.840;12.306;2023-04-08T05:57:06;102145.94;;;5.87;60.82
63405;BME280;49541;57.840;12.306;2023-04-08T06:02:06;102147.22;;;5.99;60.92
63405;BME280;49541;57.840;12.306;2023-04-08T06:07:06;102152.03;;;6.10;60.91
63405;BME280;49541;57.840;12.306;2023-04-08T06:12:07;102167.31;;;6.03;60.46
63405;BME280;49541;57.840;12.306;2023-04-08T06:17:07;102166.00;;;6.13;60.19
63405;BME280;49541;57.840;12.306;2023-04-08T06:22:07;102171.28;;;6.34;59.46
63405;BME280;49541;57.840;12.306;2023-04-08T06:27:07;102178.56;;;6.29;59.92
63405;BME280;49541;57.840;12.306;2023-04-08T06:32:08;102175.91;;;6.08;59.60
63405;BME280;49541;57.840;12.306;2023-04-08T06:37:08;102192.59;;;6.31;59.27
63405;BME280;49541;57.840;12.306;2023-04-08T06:42:08;102191.63;;;6.32;59.38
63405;BME280;49541;57.840;12.306;2023-04-08T06:47:08;102197.03;;;6.30;59.66
63405;BME280;49541;57.840;12.306;2023-04-08T06:52:09;102205.00;;;6.29;59.51
63405;BME280;49541;57.840;12.306;2023-04-08T06:57:09;102212.34;;;6.63;58.83
63405;BME280;49541;57.840;12.306;2023-04-08T07:02:10;102194.06;;;6.57;58.31
63405;BME280;49541;57.840;12.306;2023-04-08T07:07:11;102215.47;;;6.52;59.29
63405;BME280;49541;57.840;12.306;2023-04-08T07:12:11;102204.69;;;6.76;58.91
63405;BME280;49541;57.840;12.306;2023-04-08T07:17:11;102212.84;;;6.90;58.16
63405;BME280;49541;57.840;12.306;2023-04-08T07:22:12;102210.59;;;7.02;58.01
63405;BME280;49541;57.840;12.306;2023-04-08T07:27:12;102208.31;;;7.13;58.16
63405;BME280;49541;57.840;12.306;2023-04-08T07:32:12;102214.47;;;7.13;57.72
63405;BME280;49541;57.840;12.306;2023-04-08T07:37:12;102214.53;;;6.93;58.43
63405;BME280;49541;57.840;12.306;2023-04-08T07:42:12;102209.16;;;7.13;58.16
63405;BME280;49541;57.840;12.306;2023-04-08T07:47:13;102212.97;;;7.08;58.45
63405;BME280;49541;57.840;12.306;2023-04-08T07:52:13;102218.34;;;7.25;57.86
63405;BME280;49541;57.840;12.306;2023-04-08T07:57:13;102216.59;;;7.24;57.97
63405;BME280;49541;57.840;12.306;2023-04-08T08:02:13;102221.78;;;7.27;57.97
63405;BME280;49541;57.840;12.306;2023-04-08T08:07:13;102223.75;;;7.60;56.50
63405;BME280;49541;57.840;12.306;2023-04-08T08:12:14;102229.50;;;7.51;57.20
63405;BME280;49541;57.840;12.306;2023-04-08T08:17:14;102224.84;;;7.37;57.22
63405;BME280;49541;57.840;12.306;2023-04-08T08:22:14;102227.41;;;7.57;56.31
63405;BME280;49541;57.840;12.306;2023-04-08T08:27:14;102231.94;;;7.36;56.63
63405;BME280;49541;57.840;12.306;2023-04-08T08:32:15;102233.97;;;7.31;57.49
63405;BME280;49541;57.840;12.306;2023-04-08T08:37:15;102231.19;;;7.52;57.54
63405;BME280;49541;57.840;12.306;2023-04-08T08:42:22;102237.06;;;7.58;56.67
63405;BME280;49541;57.840;12.306;2023-04-08T08:47:23;102241.75;;;8.07;55.60
63405;BME280;49541;57.840;12.306;2023-04-08T08:52:23;102245.69;;;8.52;55.47
63405;BME280;49541;57.840;12.306;2023-04-08T08:57:23;102245.31;;;8.93;53.81
63405;BME280;49541;57.840;12.306;2023-04-08T09:02:29;102252.38;;;9.26;51.38
63405;BME280;49541;57.840;12.306;2023-04-08T09:07:30;102234.53;;;9.28;52.13
63405;BME280;49541;57.840;12.306;2023-04-08T09:12:31;102244.16;;;9.15;52.64
63405;BME280;49541;57.840;12.306;2023-04-08T09:17:31;102243.06;;;9.51;52.01
63405;BME280;49541;57.840;12.306;2023-04-08T09:22:33;102239.34;;;9.69;51.88
63405;BME280;49541;57.840;12.306;2023-04-08T09:27:36;102245.25;;;9.74;52.18
63405;BME280;49541;57.840;12.306;2023-04-08T09:32:52;102242.06;;;9.83;51.39
63405;BME280;49541;57.840;12.306;2023-04-08T09:37:52;102231.81;;;10.38;50.51
63405;BME280;49541;57.840;12.306;2023-04-08T09:42:53;102236.53;;;10.63;50.54
63405;BME280;49541;57.840;12.306;2023-04-08T09:47:55;102238.91;;;10.96;48.50
63405;BME280;49541;57.840;12.306;2023-04-08T09:53:00;102231.84;;;11.10;48.35
63405;BME280;49541;57.840;12.306;2023-04-08T10:03:13;102225.19;;;11.17;49.09
63405;BME280;49541;57.840;12.306;2023-04-08T10:08:19;102222.25;;;11.21;48.59
63405;BME280;49541;57.840;12.306;2023-04-08T10:13:20;102217.16;;;11.31;49.06
63405;BME280;49541;57.840;12.306;2023-04-08T10:23:51;102209.84;;;12.42;47.46
63405;BME280;49541;57.840;12.306;2023-04-08T10:28:42;102202.56;;;12.95;46.98
63405;BME280;49541;57.840;12.306;2023-04-08T10:33:42;102200.44;;;13.37;44.84
63405;BME280;49541;57.840;12.306;2023-04-08T10:38:43;102193.34;;;13.49;45.22
63405;BME280;49541;57.840;12.306;2023-04-08T10:43:43;102192.91;;;13.90;43.76
63405;BME280;49541;57.840;12.306;2023-04-08T10:48:58;102190.69;;;13.84;44.13
63405;BME280;49541;57.840;12.306;2023-04-08T10:54:04;102188.94;;;13.96;43.28
63405;BME280;49541;57.840;12.306;2023-04-08T10:59:05;102188.19;;;13.70;44.00
63405;BME280;49541;57.840;12.306;2023-04-08T11:04:06;102184.31;;;13.74;43.97
63405;BME280;49541;57.840;12.306;2023-04-08T11:09:11;102185.63;;;13.92;44.19
63405;BME280;49541;57.840;12.306;2023-04-08T11:14:11;102188.44;;;14.02;43.93
63405;BME280;49541;57.840;12.306;2023-04-08T11:19:12;102188.44;;;14.02;44.13
63405;BME280;49541;57.840;12.306;2023-04-08T11:24:12;102181.53;;;14.11;43.83
63405;BME280;49541;57.840;12.306;2023-04-08T11:29:13;102180.50;;;15.26;41.85
63405;BME280;49541;57.840;12.306;2023-04-08T11:34:19;102175.13;;;15.26;41.83
63405;BME280;49541;57.840;12.306;2023-04-08T11:39:23;102186.75;;;15.91;40.63
63405;BME280;49541;57.840;12.306;2023-04-08T11:44:30;102187.84;;;16.52;39.81
63405;BME280;49541;57.840;12.306;2023-04-08T11:49:42;102186.84;;;16.74;39.23
63405;BME280;49541;57.840;12.306;2023-04-08T11:54:42;102183.53;;;17.42;37.92
63405;BME280;49541;57.840;12.306;2023-04-08T11:59:42;102175.94;;;17.86;37.46
63405;BME280;49541;57.840;12.306;2023-04-08T12:04:43;102176.91;;;18.14;37.04
63405;BME280;49541;57.840;12.306;2023-04-08T12:09:43;102180.38;;;18.91;36.41
63405;BME280;49541;57.840;12.306;2023-04-08T12:14:43;102179.94;;;19.13;35.22
63405;BME280;49541;57.840;12.306;2023-04-08T12:19:43;102173.72;;;19.49;34.85
63405;BME280;49541;57.840;12.306;2023-04-08T12:24:44;102171.81;;;19.59;34.52
63405;BME280;49541;57.840;12.306;2023-04-08T12:29:44;102167.81;;;20.25;34.79
63405;BME280;49541;57.840;12.306;2023-04-08T12:34:45;102164.28;;;20.85;33.35
63405;BME280;49541;57.840;12.306;2023-04-08T12:39:45;102171.09;;;21.81;31.98
63405;BME280;49541;57.840;12.306;2023-04-08T12:44:46;102170.44;;;21.79;31.18
63405;BME280;49541;57.840;12.306;2023-04-08T12:49:46;102162.13;;;21.47;32.16
63405;BME280;49541;57.840;12.306;2023-04-08T12:54:47;102159.56;;;21.46;32.10
63405;BME280;49541;57.840;12.306;2023-04-08T12:59:47;102150.47;;;21.96;31.65
63405;BME280;49541;57.840;12.306;2023-04-08T13:04:47;102148.91;;;22.10;31.13
63405;BME280;49541;57.840;12.306;2023-04-08T13:09:48;102156.53;;;22.23;31.18
63405;BME280;49541;57.840;12.306;2023-04-08T13:14:48;102140.59;;;21.79;31.51
63405;BME280;49541;57.840;12.306;2023-04-08T13:19:49;102140.59;;;22.28;30.40
63405;BME280;49541;57.840;12.306;2023-04-08T13:24:49;102142.47;;;22.75;30.55
63405;BME280;49541;57.840;12.306;2023-04-08T13:29:50;102143.47;;;23.45;29.81
63405;BME280;49541;57.840;12.306;2023-04-08T13:34:50;102138.13;;;23.28;29.74
63405;BME280;49541;57.840;12.306;2023-04-08T13:39:50;102128.53;;;23.87;28.31
63405;BME280;49541;57.840;12.306;2023-04-08T13:44:50;102132.31;;;23.31;28.90
63405;BME280;49541;57.840;12.306;2023-04-08T13:49:51;102129.19;;;22.33;30.56
63405;BME280;49541;57.840;12.306;2023-04-08T13:54:52;102121.28;;;22.23;30.23
63405;BME280;49541;57.840;12.306;2023-04-08T13:59:52;102117.84;;;21.14;31.86
63405;BME280;49541;57.840;12.306;2023-04-08T14:04:52;102129.41;;;22.15;30.94
63405;BME280;49541;57.840;12.306;2023-04-08T14:09:52;102129.41;;;22.06;30.33
63405;BME280;49541;57.840;12.306;2023-04-08T14:14:53;102117.91;;;21.63;31.20
63405;BME280;49541;57.840;12.306;2023-04-08T14:19:53;102121.91;;;21.18;31.42
63405;BME280;49541;57.840;12.306;2023-04-08T14:24:53;102120.22;;;21.34;30.92
63405;BME280;49541;57.840;12.306;2023-04-08T14:29:53;102117.09;;;21.79;30.53
63405;BME280;49541;57.840;12.306;2023-04-08T14:34:53;102119.41;;;22.71;29.24
63405;BME280;49541;57.840;12.306;2023-04-08T14:39:54;102121.34;;;23.48;27.94
63405;BME280;49541;57.840;12.306;2023-04-08T14:44:54;102117.28;;;22.89;28.67
63405;BME280;49541;57.840;12.306;2023-04-08T14:49:56;102114.50;;;22.27;29.75
63405;BME280;49541;57.840;12.306;2023-04-08T14:54:56;102112.38;;;22.45;28.66
63405;BME280;49541;57.840;12.306;2023-04-08T14:59:56;102105.69;;;22.64;28.34
63405;BME280;49541;57.840;12.306;2023-04-08T15:04:57;102106.25;;;23.22;26.67
63405;BME280;49541;57.840;12.306;2023-04-08T15:09:57;102106.53;;;23.74;26.54
63405;BME280;49541;57.840;12.306;2023-04-08T15:14:58;102101.50;;;23.47;26.59
63405;BME280;49541;57.840;12.306;2023-04-08T15:19:58;102101.94;;;24.12;25.04
63405;BME280;49541;57.840;12.306;2023-04-08T15:24:58;102098.16;;;23.83;25.06
63405;BME280;49541;57.840;12.306;2023-04-08T15:29:58;102092.66;;;23.22;25.84
63405;BME280;49541;57.840;12.306;2023-04-08T15:34:59;102093.06;;;22.40;26.16
63405;BME280;49541;57.840;12.306;2023-04-08T15:39:59;102091.31;;;22.56;25.47
63405;BME280;49541;57.840;12.306;2023-04-08T15:44:59;102088.84;;;22.77;25.19
63405;BME280;49541;57.840;12.306;2023-04-08T15:50:00;102086.69;;;23.04;24.09
63405;BME280;49541;57.840;12.306;2023-04-08T15:55:00;102087.72;;;22.16;25.40
63405;BME280;49541;57.840;12.306;2023-04-08T16:00:05;102079.78;;;21.16;26.14
63405;BME280;49541;57.840;12.306;2023-04-08T16:05:05;102078.19;;;20.97;25.42
63405;BME280;49541;57.840;12.306;2023-04-08T16:10:06;102083.16;;;20.24;26.34
63405;BME280;49541;57.840;12.306;2023-04-08T16:15:06;102078.81;;;19.79;26.29
63405;BME280;49541;57.840;12.306;2023-04-08T16:20:07;102084.59;;;19.84;26.86
63405;BME280;49541;57.840;12.306;2023-04-08T16:25:07;102073.72;;;20.02;26.76
63405;BME280;49541;57.840;12.306;2023-04-08T16:30:08;102090.63;;;19.78;27.93
63405;BME280;49541;57.840;12.306;2023-04-08T16:35:08;102090.09;;;19.39;28.76
63405;BME280;49541;57.840;12.306;2023-04-08T16:40:09;102089.25;;;18.75;29.98
63405;BME280;49541;57.840;12.306;2023-04-08T16:45:09;102094.78;;;19.01;29.80
63405;BME280;49541;57.840;12.306;2023-04-08T16:50:10;102098.19;;;18.75;29.86
63405;BME280;49541;57.840;12.306;2023-04-08T16:55:10;102092.09;;;19.01;28.84
63405;BME280;49541;57.840;12.306;2023-04-08T17:00:10;102098.69;;;18.24;30.11
63405;BME280;49541;57.840;12.306;2023-04-08T17:05:11;102093.91;;;18.55;29.65
63405;BME280;49541;57.840;12.306;2023-04-08T17:10:11;102099.44;;;18.06;30.52
63405;BME280;49541;57.840;12.306;2023-04-08T17:15:11;102089.44;;;17.79;31.23
63405;BME280;49541;57.840;12.306;2023-04-08T17:20:11;102095.53;;;17.32;31.09
63405;BME280;49541;57.840;12.306;2023-04-08T17:25:12;102101.75;;;16.73;32.85
63405;BME280;49541;57.840;12.306;2023-04-08T17:30:12;102099.16;;;16.21;33.76
63405;BME280;49541;57.840;12.306;2023-04-08T17:35:13;102109.03;;;15.57;35.15
63405;BME280;49541;57.840;12.306;2023-04-08T17:40:13;102113.06;;;15.20;36.32
63405;BME280;49541;57.840;12.306;2023-04-08T17:45:13;102109.50;;;14.64;37.45
63405;BME280;49541;57.840;12.306;2023-04-08T17:50:13;102113.91;;;14.77;37.05
63405;BME280;49541;57.840;12.306;2023-04-08T17:55:14;102109.88;;;14.37;38.09
63405;BME280;49541;57.840;12.306;2023-04-08T18:00:14;102119.06;;;13.99;38.63
63405;BME280;49541;57.840;12.306;2023-04-08T18:05:15;102128.69;;;14.02;38.42
63405;BME280;49541;57.840;12.306;2023-04-08T18:10:15;102123.22;;;13.68;39.27
63405;BME280;49541;57.840;12.306;2023-04-08T18:15:16;102130.84;;;13.85;39.00
63405;BME280;49541;57.840;12.306;2023-04-08T18:20:16;102125.22;;;13.77;39.03
63405;BME280;49541;57.840;12.306;2023-04-08T18:25:16;102123.31;;;13.31;40.20
63405;BME280;49541;57.840;12.306;2023-04-08T18:30:18;102129.16;;;13.12;40.42
63405;BME280;49541;57.840;12.306;2023-04-08T18:35:18;102125.97;;;12.94;41.31
63405;BME280;49541;57.840;12.306;2023-04-08T18:40:19;102126.81;;;12.95;41.22
63405;BME280;49541;57.840;12.306;2023-04-08T18:45:19;102131.19;;;12.59;42.25
63405;BME280;49541;57.840;12.306;2023-04-08T18:50:19;102138.25;;;12.34;42.78
63405;BME280;49541;57.840;12.306;2023-04-08T18:55:19;102139.00;;;12.23;43.40
63405;BME280;49541;57.840;12.306;2023-04-08T19:00:20;102141.44;;;11.88;44.38
63405;BME280;49541;57.840;12.306;2023-04-08T19:05:20;102141.34;;;11.62;44.84
63405;BME280;49541;57.840;12.306;2023-04-08T19:10:20;102132.41;;;11.36;45.94
63405;BME280;49541;57.840;12.306;2023-04-08T19:15:21;102138.28;;;11.41;45.37
63405;BME280;49541;57.840;12.306;2023-04-08T19:20:21;102138.53;;;11.24;45.68
63405;BME280;49541;57.840;12.306;2023-04-08T19:25:21;102139.38;;;10.97;45.98
63405;BME280;49541;57.840;12.306;2023-04-08T19:30:22;102137.19;;;10.75;46.45
63405;BME280;49541;57.840;12.306;2023-04-08T19:35:22;102143.69;;;10.57;46.81
63405;BME280;49541;57.840;12.306;2023-04-08T19:40:22;102137.50;;;10.56;46.84
63405;BME280;49541;57.840;12.306;2023-04-08T19:45:22;102132.88;;;10.15;47.28
63405;BME280;49541;57.840;12.306;2023-04-08T19:50:23;102130.59;;;10.09;47.46
63405;BME280;49541;57.840;12.306;2023-04-08T19:55:23;102129.78;;;9.93;48.69
63405;BME280;49541;57.840;12.306;2023-04-08T20:00:24;102132.78;;;9.72;48.82
63405;BME280;49541;57.840;12.306;2023-04-08T20:05:26;102135.88;;;9.64;48.87
63405;BME280;49541;57.840;12.306;2023-04-08T20:10:26;102129.72;;;9.48;49.09
63405;BME280;49541;57.840;12.306;2023-04-08T20:15:27;102130.81;;;9.30;49.61
63405;BME280;49541;57.840;12.306;2023-04-08T20:20:27;102141.69;;;8.93;50.97
63405;BME280;49541;57.840;12.306;2023-04-08T20:25:27;102138.81;;;8.65;52.01
63405;BME280;49541;57.840;12.306;2023-04-08T20:30:27;102141.59;;;8.79;51.09
63405;BME280;49541;57.840;12.306;2023-04-08T20:35:27;102138.78;;;8.98;49.67
63405;BME280;49541;57.840;12.306;2023-04-08T20:40:28;102141.91;;;8.57;50.73
63405;BME280;49541;57.840;12.306;2023-04-08T20:45:28;102146.69;;;8.50;51.01
63405;BME280;49541;57.840;12.306;2023-04-08T20:50:29;102139.50;;;8.35;50.94
63405;BME280;49541;57.840;12.306;2023-04-08T20:55:30;102151.47;;;7.91;51.56
63405;BME280;49541;57.840;12.306;2023-04-08T21:00:30;102157.31;;;7.80;51.74
63405;BME280;49541;57.840;12.306;2023-04-08T21:05:30;102152.34;;;7.74;51.94
63405;BME280;49541;57.840;12.306;2023-04-08T21:10:30;102150.59;;;7.56;51.99
63405;BME280;49541;57.840;12.306;2023-04-08T21:15:30;102158.91;;;7.48;52.06
63405;BME280;49541;57.840;12.306;2023-04-08T21:20:31;102150.44;;;7.23;52.72
63405;BME280;49541;57.840;12.306;2023-04-08T21:25:31;102154.88;;;7.03;53.42
63405;BME280;49541;57.840;12.306;2023-04-08T21:30:31;102148.16;;;6.77;54.46
63405;BME280;49541;57.840;12.306;2023-04-08T21:35:31;102149.13;;;6.95;53.97
63405;BME280;49541;57.840;12.306;2023-04-08T21:40:32;102154.09;;;6.63;54.40
63405;BME280;49541;57.840;12.306;2023-04-08T21:45:32;102154.72;;;6.49;54.56
63405;BME280;49541;57.840;12.306;2023-04-08T21:50:32;102154.84;;;6.46;54.46
63405;BME280;49541;57.840;12.306;2023-04-08T21:55:32;102158.97;;;6.33;54.69
63405;BME280;49541;57.840;12.306;2023-04-08T22:00:32;102154.28;;;5.99;55.73
63405;BME280;49541;57.840;12.306;2023-04-08T22:05:33;102142.00;;;5.75;56.76
63405;BME280;49541;57.840;12.306;2023-04-08T22:10:33;102146.53;;;5.94;56.71
63405;BME280;49541;57.840;12.306;2023-04-08T22:15:33;102150.69;;;5.79;56.90
63405;BME280;49541;57.840;12.306;2023-04-08T22:20:33;102151.13;;;5.68;56.84
63405;BME280;49541;57.840;12.306;2023-04-08T22:25:33;102155.22;;;5.75;56.72
63405;BME280;49541;57.840;12.306;2023-04-08T22:30:34;102156.09;;;5.54;56.67
63405;BME280;49541;57.840;12.306;2023-04-08T22:35:34;102156.59;;;5.42;57.33
63405;BME280;49541;57.840;12.306;2023-04-08T22:40:34;102155.94;;;5.15;57.39
63405;BME280;49541;57.840;12.306;2023-04-08T22:45:36;102148.66;;;4.98;58.08
63405;BME280;49541;57.840;12.306;2023-04-08T22:50:36;102146.66;;;4.81;58.73
63405;BME280;49541;57.840;12.306;2023-04-08T22:55:37;102153.13;;;4.96;58.59
63405;BME280;49541;57.840;12.306;2023-04-08T23:00:37;102152.78;;;5.05;58.48
63405;BME280;49541;57.840;12.306;2023-04-08T23:05:38;102137.47;;;4.91;58.76
63405;BME280;49541;57.840;12.306;2023-04-08T23:10:38;102139.72;;;4.78;58.67
63405;BME280;49541;57.840;12.306;2023-04-08T23:15:38;102141.19;;;4.85;58.81
63405;BME280;49541;57.840;12.306;2023-04-08T23:20:38;102146.13;;;4.71;59.13
63405;BME280;49541;57.840;12.306;2023-04-08T23:25:39;102142.59;;;4.72;58.98
63405;BME280;49541;57.840;12.306;2023-04-08T23:30:39;102150.97;;;4.83;59.52
63405;BME280;49541;57.840;12.306;2023-04-08T23:35:39;102150.06;;;4.61;59.43
63405;BME280;49541;57.840;12.306;2023-04-08T23:40:39;102148.38;;;4.35;60.08
63405;BME280;49541;57.840;12.306;2023-04-08T23:45:40;102152.88;;;4.31;60.39
63405;BME280;49541;57.840;12.306;2023-04-08T23:50:40;102147.31;;;4.15;60.74
63405;BME280;49541;57.840;12.306;2023-04-08T23:55:40;102155.22;;;3.88;61.08
